METAR Data
IDs: Format: Raw Decoded Include TAF

Data at: 0123 UTC 24 Sep 2018

KZPH 240115Z AUTO 00000KT 10SM VCTS CLR 26/23 A3000 RMK AO2 LTG DSNT W T02550233
KZPH 240055Z AUTO 00000KT 10SM VCTS SCT070 26/23 A2999 RMK AO2 LTG DSNT W T02550232
KZPH 240035Z AUTO 00000KT 10SM SCT070 26/23 A2999 RMK AO2 LTG DSNT W AND NW T02600232
KZPH 240015Z AUTO 00000KT 10SM BKN070 BKN085 BKN110 26/23 A2998 RMK AO2 LTG DSNT S THRU W T02600231
KZPH 232355Z AUTO 00000KT 10SM VCTS SCT060 SCT070 26/23 A2998 RMK AO2 LTG DSNT SW THRU N T02640230 10323 20264
KZPH 232335Z AUTO 00000KT VCTS SCT070 27/23 A2997 RMK AO2 LTG DSNT SW AND W T02660229
KZPH 232315Z AUTO 00000KT CLR 27/23 A2996 RMK AO2 LTG DSNT SW THRU N T02660229 PWINO
KZPH 232255Z AUTO 00000KT CLR 27/23 A2996 RMK AO2 LTG DSNT SW T02710227 PWINO
KZPH 232235Z AUTO 00000KT SCT041 28/23 A2996 RMK AO2 LTG DSNT SW T02750230 PWINO
KZPH 232215Z AUTO 00000KT VCTS SCT039 29/23 A2995 RMK AO2 LTG DSNT SW T02850231
KZPH 232155Z AUTO 00000KT VCTS CLR 29/23 A2995 RMK AO2 LTG DSNT SW T02940225
KZPH 232135Z AUTO 00000KT VCTS CLR 30/23 A2995 RMK AO2 LTG DSNT SW AND W T03030226
KZPH 232115Z AUTO 00000KT VCTS CLR 32/23 A2995 RMK AO2 LTG DSNT SW AND W T03150231
KZPH 232055Z AUTO 09004KT VCTS CLR 32/23 A2995 RMK AO2 LTG DSNT SW AND W T03150232
KZPH 232035Z AUTO 00000KT CLR 31/23 A2995 RMK AO2 LTG DSNT W T03100234 PWINO
KZPH 232015Z AUTO 08010G16KT VCTS SCT038 SCT050 BKN120 31/24 A2995 RMK AO2 LTG DSNT NE AND W T03090239
KZPH 231955Z AUTO 08005G15KT BKN038 BKN050 OVC120 31/23 A2996 RMK AO2 LTG DSNT W T03080231 PWINO
KZPH 231935Z AUTO 00000KT SCT034 SCT042 BKN050 32/24 A2997 RMK AO2 T03180243 PWINO
KZPH 231915Z AUTO 00000KT SCT036 SCT041 SCT080 30/24 A2998 RMK AO2 LTG DSNT SE T03040236 PWINO
KZPH 231855Z AUTO 00000KT SCT042 SCT065 SCT075 32/24 A2998 RMK AO2 LTG DSNT SE T03150236 PWINO
KZPH 231835Z AUTO 00000KT SCT031 BKN042 OVC080 29/24 A2999 RMK AO2 T02940243 PWINO
KZPH 231815Z AUTO 00000KT SCT029 BKN033 OVC085 31/25 A3000 RMK AO2 LTG DSNT SE AND SW T03100250 PWINO
KZPH 231755Z AUTO 00000KT SCT035 BKN044 OVC085 29/24 A3000 RMK AO2 LTG DSNT NE P0001 60001 T02940244 10312 20225 PWINO
KZPH 231735Z AUTO 00000KT SCT031 BKN039 BKN046 31/24 A3001 RMK AO2 LTG DSNT NE T03080235 PWINO
KZPH 231715Z AUTO 00000KT SCT031 BKN038 31/24 A3001 RMK AO2 T03060236 PWINO
KZPH 231655Z AUTO 00000KT BKN032 BKN040 BKN055 30/24 A3002 RMK AO2 T03000235 PWINO
KZPH 231635Z AUTO 00000KT SCT034 BKN050 BKN060 30/23 A3003 RMK AO2 LTG DSNT SW T02970233 PWINO
KZPH 231615Z AUTO 00000KT SCT030 SCT050 BKN070 30/23 A3004 RMK AO2 LTG DSNT E AND SW T03030234 PWINO
KZPH 231555Z AUTO 00000KT SCT060 31/23 A3004 RMK AO2 LTG DSNT E T03100230 PWINO
KZPH 231535Z AUTO 00000KT SCT034 SCT046 SCT060 30/23 A3004 RMK AO2 LTG DSNT E T03040230 PWINO
KZPH 231515Z AUTO 00000KT SCT027 SCT034 BKN048 30/23 A3005 RMK AO2 T02990233 PWINO
KZPH 231455Z AUTO 00000KT SCT023 SCT029 29/24 A3005 RMK AO2 T02930235 PWINO
KZPH 231435Z AUTO 00000KT SCT021 29/24 A3004 RMK AO2 T02920237 PWINO
KZPH 231415Z AUTO 00000KT CLR 29/24 A3004 RMK AO2 LTG DSNT SW T02900240 PWINO
KZPH 231355Z AUTO 00000KT CLR 28/24 A3003 RMK AO2 T02810240 PWINO
KZPH 231335Z AUTO 00000KT CLR 27/24 A3003 RMK AO2 T02730239 PWINO
KZPH 231315Z AUTO 00000KT CLR 27/24 A3003 RMK AO2 T02650238 PWINO
KZPH 231255Z AUTO 00000KT 25/24 A3002 RMK AO2 T02520236 PWINO
KZPH 231235Z AUTO 00000KT 24/23 A3002 RMK AO2 T02410234 PWINO
KZPH 231215Z AUTO 00000KT 23/23 A3001 RMK AO2 T02320230 PWINO
KZPH 231155Z AUTO 00000KT 22/22 A3000 RMK AO2 LTG DSNT S T02230221 10226 20215 PWINO
KZPH 231135Z AUTO 00000KT 22/21 A3000 RMK AO2 T02150212 PWINO
KZPH 231115Z AUTO 00000KT 22/21 A2999 RMK AO2 T02170214 PWINO
KZPH 231055Z AUTO 00000KT 22/22 A2999 RMK AO2 T02190215 PWINO
KZPH 231035Z AUTO 00000KT 22/21 A2998 RMK AO2 T02150212 PWINO
KZPH 231015Z AUTO 00000KT 22/21 A2998 RMK AO2 T02170212 PWINO
KZPH 230955Z AUTO 00000KT 22/22 A2998 RMK AO2 LTG DSNT W T02230219 PWINO
KZPH 230935Z AUTO 00000KT 22/22 A2998 RMK AO2 T02210217 PWINO
KZPH 230915Z AUTO 00000KT 22/21 A2998 RMK AO2 LTG DSNT SW T02180213 PWINO
KZPH 230855Z AUTO 00000KT 22/21 A2998 RMK AO2 T02210214 PWINO
KZPH 230835Z AUTO 00000KT 10SM CLR 22/22 A2999 RMK AO2 LTG DSNT SW T02220217
KZPH 230815Z AUTO 00000KT 10SM CLR 22/22 A2999 RMK AO2 T02230217
KZPH 230755Z AUTO 00000KT 10SM CLR 22/22 A2999 RMK AO2 T02240217
KZPH 230735Z AUTO 00000KT 22/22 A2999 RMK AO2 T02240218 PWINO
KZPH 230715Z AUTO 00000KT 22/22 A2999 RMK AO2 T02230217 PWINO
KZPH 230655Z AUTO 00000KT 22/22 A3000 RMK AO2 T02230216 PWINO
KZPH 230635Z AUTO 00000KT 23/22 A3000 RMK AO2 LTG DSNT SW AND W T02250217 PWINO
KZPH 230615Z AUTO 00000KT 23/22 A3001 RMK AO2 SKY OBSCURED LTG DSNT W T02260217 PWINO
KZPH 230555Z AUTO 00000KT 10SM BKN090 23/22 A3002 RMK AO2 LTG DSNT SW AND W T02260217 10270 20223 403300216
KZPH 230535Z AUTO 00000KT 10SM OVC090 23/22 A3003 RMK AO2 LTG DSNT W AND NW T02260219
KZPH 230515Z AUTO 00000KT 10SM BKN090 23/22 A3003 RMK AO2 LTG DSNT SW THRU NW T02260218
KZPH 230455Z AUTO 00000KT 10SM SCT090 23/22 A3003 RMK AO2 LTG DSNT W T02250215
KZPH 230435Z AUTO 00000KT 10SM SCT090 23/22 A3004 RMK AO2 LTG DSNT W T02250216
KZPH 230415Z AUTO 00000KT 10SM CLR 23/22 A3004 RMK AO2 LTG DSNT W T02270215
KZPH 230355Z AUTO 00000KT 10SM CLR 23/22 A3005 RMK AO2 T02300215
KZPH 230335Z AUTO 00000KT 10SM CLR 23/21 A3004 RMK AO2 LTG DSNT SW AND W T02310212
KZPH 230315Z AUTO 00000KT 10SM CLR 24/22 A3003 RMK AO2 LTG DSNT SW T02370215
KZPH 230255Z AUTO 00000KT 10SM CLR 24/21 A3003 RMK AO2 LTG DSNT SW AND NW T02390212
KZPH 230235Z AUTO 00000KT 10SM CLR 24/21 A3002 RMK AO2 LTG DSNT SW T02420212
KZPH 230215Z AUTO 00000KT 10SM CLR 25/21 A3002 RMK AO2 LTG DSNT SW T02470213
KZPH 230155Z AUTO 00000KT 10SM CLR 25/21 A3002 RMK AO2 LTG DSNT SW AND NW T02460214
KZPH 230135Z AUTO 00000KT 10SM CLR 24/21 A3001 RMK AO2 LTG DSNT SW AND NW T02440213
KZPH 230115Z AUTO 00000KT 10SM CLR 26/21 A3000 RMK AO2 LTG DSNT NW T02550213
KZPH 230055Z AUTO 00000KT 10SM CLR 26/21 A2999 RMK AO2 LTG DSNT S AND NW T02580213
KZPH 230035Z AUTO 00000KT 10SM CLR 26/21 A2998 RMK AO2 LTG DSNT NW T02590214
KZPH 230015Z AUTO 00000KT 10SM CLR 26/21 A2998 RMK AO2 LTG DSNT SW AND NW T02630213
KZPH 222355Z AUTO 00000KT CLR 27/21 A2998 RMK AO2 LTG DSNT SW AND NW T02700213 10330 20270 PWINO
KZPH 222335Z AUTO 00000KT CLR 28/21 A2999 RMK AO2 LTG DSNT NW T02760213 PWINO
KZPH 222315Z AUTO 00000KT CLR 29/21 A2998 RMK AO2 LTG DSNT NW T02880210 PWINO
KZPH 222255Z AUTO 00000KT CLR 30/21 A2998 RMK AO2 LTG DSNT S T02980209 PWINO
KZPH 222235Z AUTO 00000KT CLR 30/21 A2997 RMK AO2 LTG DSNT W T03040207 PWINO
KZPH 222215Z AUTO 00000KT CLR 31/21 A2997 RMK AO2 LTG DSNT S AND W T03120214 PWINO
KZPH 222155Z AUTO 10009KT CLR 32/21 A2997 RMK AO2 LTG DSNT SE THRU W T03160211 PWINO
KZPH 222135Z AUTO 00000KT CLR 31/21 A2998 RMK AO2 LTG DSNT S AND W T03110213 PWINO
KZPH 222115Z AUTO 00000KT SCT048 SCT060 SCT075 30/21 A2998 RMK AO2 LTG DSNT SE T03020211 PWINO
KZPH 222055Z AUTO 00000KT SCT046 SCT060 BKN075 32/21 A2997 RMK AO2 LTG DSNT SE T03150211 PWINO
KZPH 222035Z AUTO 00000KT SCT048 SCT060 33/21 A2997 RMK AO2 LTG DSNT SE T03250214 PWINO
KZPH 222015Z AUTO 00000KT SCT047 SCT055 32/21 A2997 RMK AO2 LTG DSNT SE AND SW T03160214 PWINO
KZPH 221955Z AUTO 00000KT BKN047 32/22 A2998 RMK AO2 LTG DSNT SE T03180216 PWINO
KZPH 221935Z AUTO 00000KT SCT047 SCT075 32/22 A2998 RMK AO2 T03180222 PWINO
KZPH 221915Z AUTO 09003KT SCT075 32/22 A2999 RMK AO2 T03230215 PWINO
KZPH 221855Z AUTO 00000KT SCT042 SCT048 33/22 A2999 RMK AO2 T03290218 PWINO
KZPH 221835Z AUTO 00000KT SCT041 SCT050 SCT080 32/23 A3000 RMK AO2 T03210230 PWINO
KZPH 221815Z AUTO 00000KT SCT065 31/22 A3001 RMK AO2 T03070221 PWINO
KZPH 221755Z AUTO 00000KT SCT038 BKN065 31/23 A3002 RMK AO2 T03110229 10320 20225 PWINO
KZPH 221735Z AUTO 00000KT SCT036 SCT042 SCT050 31/22 A3003 RMK AO2 T03110221 PWINO
KZPH 221715Z AUTO 00000KT SCT034 SCT042 SCT050 32/23 A3003 RMK AO2 T03170230 PWINO
KZPH 221655Z AUTO 00000KT SCT033 SCT039 30/23 A3004 RMK AO2 T03000228 PWINO
KZPH 221635Z AUTO 00000KT SCT033 SCT038 31/23 A3004 RMK AO2 T03100232 PWINO
KZPH 221615Z AUTO 00000KT SCT030 SCT037 31/23 A3005 RMK AO2 LTG DSNT SW T03100228 PWINO
KZPH 221555Z AUTO 00000KT SCT030 SCT036 30/23 A3005 RMK AO2 T02960229 PWINO
KZPH 221535Z AUTO 00000KT CLR 29/23 A3006 RMK AO2 T02880227 PWINO
KZPH 221515Z AUTO 00000KT CLR 30/23 A3007 RMK AO2 T02950234 PWINO
KZPH 221455Z AUTO 00000KT SCT021 29/23 A3007 RMK AO2 T02850228 PWINO
KZPH 221435Z AUTO 00000KT SCT021 29/24 A3007 RMK AO2 T02900239 PWINO
KZPH 221415Z AUTO 00000KT CLR 28/24 A3006 RMK AO2 T02810239 PWINO
KZPH 221355Z AUTO 00000KT CLR 27/24 A3006 RMK AO2 T02730241 PWINO
KZPH 221335Z AUTO 00000KT CLR 27/24 A3007 RMK AO2 LTG DSNT E T02650240 PWINO